Time;durP1;ratioP1;P1;durP2;ratioP2;P2;SDS_P1;SDS_P2;PMS_P1;PMS_P2;Temp;Humidity;BMP_temperature;BMP_pressure;BME280_temperature;BME280_humidity;BME280_pressure;Samples;Min_cycle;Max_cycle;Signal;HPM_P1;HPM_P2
2022/01/03 00:00:44;;;;;;;16.42;13.30;;;;;;;15.24;49.12;102068.94;144992;664;6004;-88
2022/01/03 00:03:13;;;;;;;18.70;14.90;;;;;;;15.17;49.30;102064.31;144992;603;6004;-87
2022/01/03 00:05:40;;;;;;;21.75;15.43;;;;;;;15.13;49.38;102059.84;144992;605;6004;-88
2022/01/03 00:08:06;;;;;;;18.37;15.52;;;;;;;15.09;49.78;102059.69;144992;561;6004;-89
2022/01/03 00:10:35;;;;;;;19.73;16.30;;;;;;;15.05;49.60;102054.38;144992;667;6004;-89
2022/01/03 00:13:05;;;;;;;22.05;16.50;;;;;;;15.02;49.62;102042.94;144992;590;6004;-89
2022/01/03 00:15:32;;;;;;;21.23;16.62;;;;;;;14.97;49.59;102036.63;144992;571;6004;-87
2022/01/03 00:17:59;;;;;;;21.45;17.48;;;;;;;14.95;50.09;102048.78;144992;571;6004;-88
2022/01/03 00:20:26;;;;;;;22.60;18.05;;;;;;;14.92;49.96;102036.53;144992;627;6012;-88
2022/01/03 00:23:20;;;;;;;19.85;15.40;;;;;;;14.87;50.19;102038.97;144992;603;6004;-88
2022/01/03 00:25:55;;;;;;;15.57;12.70;;;;;;;14.83;49.82;102028.38;144992;805;6002;-87
2022/01/03 00:28:23;;;;;;;13.77;10.82;;;;;;;14.79;50.32;102027.34;144992;583;6002;-88
2022/01/03 00:30:54;;;;;;;12.13;9.70;;;;;;;14.77;50.03;102022.94;144992;593;6002;-85
2022/01/03 00:33:22;;;;;;;11.45;8.85;;;;;;;14.73;50.38;102024.56;144992;627;6002;-87
2022/01/03 00:35:53;;;;;;;9.50;8.13;;;;;;;14.68;50.59;102016.56;144992;583;6002;-87
2022/01/03 00:38:22;;;;;;;9.43;7.57;;;;;;;14.65;50.38;102016.47;144992;602;6002;-88
2022/01/03 00:40:49;;;;;;;10.02;7.70;;;;;;;14.63;50.37;102017.22;144992;570;6002;-87
2022/01/03 00:43:16;;;;;;;9.32;7.40;;;;;;;14.60;50.48;102010.19;144992;607;6002;-87
2022/01/03 00:45:43;;;;;;;8.68;7.35;;;;;;;14.57;50.99;102004.84;144992;840;6002;-88
2022/01/03 00:48:14;;;;;;;7.32;6.18;;;;;;;14.56;50.61;102008.28;144992;769;6002;-87
2022/01/03 00:50:41;;;;;;;7.93;6.53;;;;;;;14.58;50.44;101998.75;144992;586;6002;-91
2022/01/03 00:53:07;;;;;;;8.70;6.72;;;;;;;14.57;50.86;102001.31;144991;610;6002;-86
2022/01/03 00:55:34;;;;;;;7.53;5.87;;;;;;;14.54;50.57;102001.19;144992;599;6002;-84
2022/01/03 00:58:29;;;;;;;7.03;5.70;;;;;;;14.50;51.11;101997.59;144992;564;6002;-89
2022/01/03 01:00:59;;;;;;;8.05;5.65;;;;;;;14.49;50.67;102015.00;144992;570;6004;-87
2022/01/03 01:03:33;;;;;;;7.87;5.80;;;;;;;14.47;50.73;102008.81;144991;638;6000;-89
2022/01/03 01:06:04;;;;;;;7.07;6.20;;;;;;;14.45;51.17;101997.44;144992;615;6002;-87
2022/01/03 01:08:34;;;;;;;7.97;6.22;;;;;;;14.44;51.07;101992.16;144993;718;6002;-88
2022/01/03 01:11:07;;;;;;;8.15;6.53;;;;;;;14.41;51.21;101982.53;144993;621;6002;-87
2022/01/03 01:13:36;;;;;;;6.93;6.12;;;;;;;14.42;51.16;101984.28;144993;733;6002;-88
2022/01/03 01:16:07;;;;;;;7.43;6.43;;;;;;;14.41;51.48;101979.91;144993;566;6002;-87
2022/01/03 01:18:36;;;;;;;9.50;6.18;;;;;;;14.41;51.50;101984.22;144993;675;6016;-88
2022/01/03 01:21:06;;;;;;;8.77;6.65;;;;;;;14.39;51.60;101975.44;144993;596;6002;-86
2022/01/03 01:23:33;;;;;;;7.80;6.65;;;;;;;14.38;51.12;101973.66;144993;625;6002;-87
2022/01/03 01:28:45;;;;;;;8.20;6.90;;;;;;;14.33;51.56;101970.91;144993;571;6000;-86
2022/01/03 01:31:16;;;;;;;7.72;6.90;;;;;;;14.31;51.41;101975.19;144993;691;6002;-87
2022/01/03 01:34:16;;;;;;;7.15;6.10;;;;;;;14.30;51.66;101971.69;144993;594;6002;-86
2022/01/03 01:36:50;;;;;;;6.78;5.90;;;;;;;14.35;51.90;101961.41;144993;566;6000;-87
2022/01/03 01:39:19;;;;;;;7.07;5.50;;;;;;;14.37;51.45;101958.84;144992;653;6002;-87
2022/01/03 01:41:46;;;;;;;4.90;4.18;;;;;;;14.34;51.75;101954.41;144992;634;6002;-87
2022/01/03 01:44:14;;;;;;;5.05;4.22;;;;;;;14.33;51.87;101952.59;144992;613;6002;-87
2022/01/03 01:46:47;;;;;;;4.45;3.60;;;;;;;14.30;51.76;101950.81;144992;589;6002;-87
2022/01/03 01:49:17;;;;;;;4.85;3.80;;;;;;;14.28;51.70;101949.84;144992;564;6002;-86
2022/01/03 01:52:06;;;;;;;3.85;3.45;;;;;;;14.25;51.82;101936.69;144992;849;6002;-86
2022/01/03 01:54:38;;;;;;;4.78;4.10;;;;;;;14.28;51.87;101933.28;144993;575;6002;-85
2022/01/03 01:57:24;;;;;;;5.18;3.92;;;;;;;14.32;51.35;101929.97;144993;624;6002;-87
2022/01/03 02:00:15;;;;;;;6.07;4.40;;;;;;;14.34;51.41;101937.00;144993;610;6000;-87
2022/01/03 02:03:26;;;;;;;6.95;5.50;;;;;;;14.36;51.72;101918.75;144993;656;6002;-85
2022/01/03 02:06:30;;;;;;;7.00;5.82;;;;;;;14.40;51.78;101919.78;144993;596;6000;-86
2022/01/03 02:09:09;;;;;;;10.85;6.68;;;;;;;14.43;51.53;101922.50;144993;608;6000;-84
2022/01/03 02:11:53;;;;;;;8.35;6.97;;;;;;;14.42;51.43;101915.47;144993;564;6002;-86
2022/01/03 02:14:21;;;;;;;7.68;6.22;;;;;;;14.39;51.72;101910.16;144993;585;6002;-88
2022/01/03 02:16:49;;;;;;;8.98;7.43;;;;;;;14.37;51.68;101899.66;144993;615;6002;-85
2022/01/03 02:19:16;;;;;;;9.48;6.90;;;;;;;14.36;51.68;101897.84;144993;639;6002;-84
2022/01/03 02:21:43;;;;;;;11.15;7.78;;;;;;;14.34;51.79;101900.41;144993;618;6002;-87
2022/01/03 02:24:11;;;;;;;8.30;7.00;;;;;;;14.32;51.89;101894.25;144993;566;6002;-88
2022/01/03 02:26:38;;;;;;;9.00;7.00;;;;;;;14.31;51.63;101881.16;144993;663;6002;-87
2022/01/03 02:29:05;;;;;;;8.48;7.25;;;;;;;14.32;51.82;101889.03;144992;594;6002;-87
2022/01/03 02:31:32;;;;;;;9.20;7.28;;;;;;;14.30;52.13;101885.50;144993;575;6002;-87
2022/01/03 02:34:01;;;;;;;11.27;7.50;;;;;;;14.27;52.29;101885.41;144993;732;6003;-87
2022/01/03 02:36:30;;;;;;;9.32;7.03;;;;;;;14.23;52.16;101880.91;144992;564;6002;-87
2022/01/03 02:38:56;;;;;;;7.68;6.45;;;;;;;14.20;51.87;101874.69;144993;640;6002;-87
2022/01/03 02:41:23;;;;;;;7.22;6.00;;;;;;;14.17;52.14;101882.41;144993;610;6003;-87
2022/01/03 02:43:52;;;;;;;6.60;5.40;;;;;;;14.10;52.01;101870.87;144993;569;6002;-87
2022/01/03 02:46:19;;;;;;;5.93;4.35;;;;;;;14.07;52.32;101881.22;144993;589;6002;-88
2022/01/03 02:48:46;;;;;;;6.00;4.53;;;;;;;14.02;52.38;101877.59;144994;592;5002;-88
2022/01/03 02:51:14;;;;;;;5.60;4.43;;;;;;;13.97;52.24;101873.06;144994;607;5002;-86
2022/01/03 02:53:41;;;;;;;6.60;4.50;;;;;;;13.89;53.13;101876.28;144993;573;5002;-89
2022/01/03 02:56:08;;;;;;;4.78;4.22;;;;;;;13.87;52.68;101867.47;144994;601;5002;-87
2022/01/03 02:58:35;;;;;;;4.87;3.40;;;;;;;13.78;53.24;101868.06;144994;565;5002;-88
2022/01/03 03:01:02;;;;;;;4.43;3.62;;;;;;;13.74;53.19;101867.06;144994;582;5002;-86
2022/01/03 03:03:31;;;;;;;4.10;3.60;;;;;;;13.75;52.91;101874.06;144994;565;5002;-89
2022/01/03 03:06:01;;;;;;;5.35;4.12;;;;;;;13.75;53.12;101873.19;144994;583;5002;-86
2022/01/03 03:08:27;;;;;;;5.62;4.72;;;;;;;13.73;52.94;101873.13;144994;572;5002;-87
2022/01/03 03:10:54;;;;;;;9.38;4.72;;;;;;;13.69;53.27;101879.03;144994;611;5002;-87
2022/01/03 03:13:20;;;;;;;6.45;4.80;;;;;;;13.70;53.63;101875.62;144994;595;5002;-88
2022/01/03 03:15:48;;;;;;;6.15;5.45;;;;;;;13.73;53.55;101872.25;144994;586;5002;-88
2022/01/03 03:18:15;;;;;;;5.60;5.00;;;;;;;13.74;53.90;101876.59;144994;644;5002;-89
2022/01/03 03:20:43;;;;;;;7.07;5.20;;;;;;;13.74;53.87;101872.28;144994;571;5002;-86
2022/01/03 03:23:34;;;;;;;7.47;5.53;;;;;;;13.78;53.90;101879.38;144994;577;5002;-89
2022/01/03 03:26:03;;;;;;;7.10;5.32;;;;;;;13.84;53.90;101872.59;144994;606;5002;-87
2022/01/03 03:28:29;;;;;;;7.50;5.60;;;;;;;13.85;53.84;101870.03;144994;615;5002;-86
2022/01/03 03:30:58;;;;;;;7.90;5.45;;;;;;;13.83;54.12;101870.84;144994;604;5002;-87
2022/01/03 03:33:25;;;;;;;6.07;5.43;;;;;;;13.81;53.85;101872.47;144994;605;5003;-87
2022/01/03 03:35:52;;;;;;;6.78;5.35;;;;;;;13.78;54.01;101868.94;144994;564;5002;-86
2022/01/03 03:38:32;;;;;;;6.78;5.78;;;;;;;13.76;53.97;101867.09;144994;563;5002;-88
2022/01/03 03:41:28;;;;;;;6.87;5.53;;;;;;;13.77;54.58;101867.16;144994;573;5002;-82
2022/01/03 03:43:56;;;;;;;6.62;5.37;;;;;;;13.81;54.43;101862.94;144994;622;5004;-87
2022/01/03 03:46:23;;;;;;;5.50;5.00;;;;;;;13.81;54.31;101868.16;144994;566;5004;-86
2022/01/03 03:48:49;;;;;;;6.00;5.40;;;;;;;13.78;54.46;101858.50;144994;623;5004;-88
2022/01/03 03:51:16;;;;;;;5.47;4.75;;;;;;;13.75;54.38;101861.00;144994;598;5004;-87
2022/01/03 03:53:42;;;;;;;6.12;5.25;;;;;;;13.69;54.13;101857.28;144994;593;5004;-87
2022/01/03 03:56:09;;;;;;;5.70;5.00;;;;;;;13.67;54.45;101849.41;144994;616;5004;-88
2022/01/03 03:58:36;;;;;;;5.03;4.43;;;;;;;13.64;54.39;101844.09;144994;584;5004;-86
2022/01/03 04:01:02;;;;;;;6.43;4.90;;;;;;;13.65;54.39;101855.41;144994;574;5004;-87
2022/01/03 04:03:29;;;;;;;5.18;4.68;;;;;;;13.65;54.63;101850.19;144994;595;5004;-86
2022/01/03 04:05:55;;;;;;;5.45;4.90;;;;;;;13.66;54.49;101846.75;144994;572;5004;-88
2022/01/03 04:08:22;;;;;;;5.70;5.07;;;;;;;13.64;54.66;101844.09;144994;596;5004;-87
2022/01/03 04:10:49;;;;;;;6.35;5.18;;;;;;;13.64;54.66;101835.38;144994;583;5004;-87
2022/01/03 04:13:15;;;;;;;6.05;4.97;;;;;;;13.61;54.69;101836.16;144994;604;5004;-87
2022/01/03 04:15:43;;;;;;;7.65;5.80;;;;;;;13.60;54.69;101829.16;144994;610;5004;-88
2022/01/03 04:18:09;;;;;;;7.18;5.47;;;;;;;13.58;54.86;101823.91;144994;644;5005;-87
2022/01/03 04:20:36;;;;;;;7.80;5.55;;;;;;;13.56;54.77;101819.44;144994;596;5004;-86
2022/01/03 04:23:02;;;;;;;7.12;5.70;;;;;;;13.52;54.51;101813.25;144994;573;5004;-87
2022/01/03 04:25:29;;;;;;;7.72;5.47;;;;;;;13.50;54.67;101814.91;144994;572;5005;-87
2022/01/03 04:27:55;;;;;;;10.05;5.93;;;;;;;13.48;54.79;101807.88;144994;585;5004;-87
2022/01/03 04:30:21;;;;;;;6.55;5.43;;;;;;;13.47;54.91;101808.69;144994;582;5004;-88
2022/01/03 04:32:48;;;;;;;7.87;6.25;;;;;;;13.47;54.91;101806.97;144994;602;5005;-86
2022/01/03 04:35:14;;;;;;;6.93;5.72;;;;;;;13.48;54.91;101805.25;144994;578;5004;-88
2022/01/03 04:37:41;;;;;;;6.47;5.55;;;;;;;13.49;54.97;101804.41;144994;609;5004;-86
2022/01/03 04:40:09;;;;;;;7.43;6.20;;;;;;;13.49;54.80;101799.19;144994;571;5004;-87
2022/01/03 04:42:36;;;;;;;8.38;6.53;;;;;;;13.50;54.81;101803.59;144994;568;5004;-87
2022/01/03 04:45:03;;;;;;;9.38;6.95;;;;;;;13.49;54.86;101796.56;144994;652;5000;-88
2022/01/03 04:47:30;;;;;;;9.60;6.87;;;;;;;13.49;54.81;101799.19;144994;641;5004;-87
2022/01/03 04:49:56;;;;;;;8.57;7.12;;;;;;;13.49;55.08;101796.56;144994;610;5004;-87
2022/01/03 04:52:23;;;;;;;8.88;6.85;;;;;;;13.48;54.86;101800.91;144994;587;5004;-88
2022/01/03 04:54:49;;;;;;;10.02;6.82;;;;;;;13.47;54.85;101799.13;144994;597;5004;-86
2022/01/03 04:57:16;;;;;;;10.13;6.70;;;;;;;13.48;55.04;101794.81;144994;567;5004;-88
2022/01/03 04:59:42;;;;;;;8.10;6.47;;;;;;;13.46;55.10;101791.25;144994;572;5004;-88
2022/01/03 05:02:09;;;;;;;8.20;5.95;;;;;;;13.43;54.99;101797.28;144994;589;5004;-86
2022/01/03 05:04:35;;;;;;;7.10;6.12;;;;;;;13.43;54.61;101792.06;144993;588;5004;-88
2022/01/03 05:07:02;;;;;;;7.22;5.80;;;;;;;13.42;54.87;101793.75;144994;570;5002;-87
2022/01/03 05:09:28;;;;;;;8.07;5.70;;;;;;;13.40;54.86;101789.34;144994;606;5002;-86
2022/01/03 05:12:07;;;;;;;7.30;5.15;;;;;;;13.42;55.04;101788.53;144994;570;5002;-86
2022/01/03 05:14:35;;;;;;;7.40;5.37;;;;;;;13.46;54.89;101786.03;144994;628;5002;-86
2022/01/03 05:17:01;;;;;;;7.35;5.80;;;;;;;13.45;54.77;101789.50;144994;604;5002;-87
2022/01/03 05:19:28;;;;;;;8.18;5.70;;;;;;;13.45;54.91;101792.09;144994;575;5002;-86
2022/01/03 05:21:54;;;;;;;6.22;5.28;;;;;;;13.40;54.48;101787.59;144994;573;5002;-88
2022/01/03 05:24:21;;;;;;;8.73;6.37;;;;;;;13.37;54.83;101787.50;144994;598;5002;-88
2022/01/03 05:26:47;;;;;;;7.75;6.65;;;;;;;13.36;54.70;101795.25;144994;579;5002;-87
2022/01/03 05:29:41;;;;;;;8.52;6.95;;;;;;;13.34;54.74;101796.94;144994;580;5002;-81
2022/01/03 05:32:23;;;;;;;9.35;6.60;;;;;;;13.37;55.03;101797.94;144994;586;5003;-88
2022/01/03 05:35:06;;;;;;;9.82;6.95;;;;;;;13.45;54.78;101807.75;144994;575;5002;-88
2022/01/03 05:37:39;;;;;;;10.07;7.07;;;;;;;13.50;54.73;101804.47;144994;569;5002;-88
2022/01/03 05:40:11;;;;;;;7.25;6.22;;;;;;;13.54;55.07;101797.66;144994;606;5002;-88
2022/01/03 05:42:40;;;;;;;7.50;6.70;;;;;;;13.60;54.75;101797.84;144994;582;5002;-87
2022/01/03 05:45:08;;;;;;;8.10;6.55;;;;;;;13.59;54.74;101798.69;144994;627;5002;-87
2022/01/03 05:47:40;;;;;;;9.27;7.22;;;;;;;13.55;54.51;101792.50;144994;595;5002;-89
2022/01/03 05:50:15;;;;;;;9.70;7.05;;;;;;;13.58;54.88;101794.28;144994;566;5002;-86
2022/01/03 05:52:57;;;;;;;10.80;7.10;;;;;;;13.60;54.78;101796.13;144994;571;5002;-90
2022/01/03 05:55:27;;;;;;;9.13;6.62;;;;;;;13.61;54.79;101797.00;144994;586;5002;-88
2022/01/03 05:57:54;;;;;;;8.98;6.35;;;;;;;13.64;54.30;101785.81;144994;642;5002;-87
2022/01/03 06:00:29;;;;;;;6.47;5.40;;;;;;;13.70;54.50;101791.25;144994;578;5002;-86
2022/01/03 06:02:58;;;;;;;6.32;5.03;;;;;;;13.72;54.25;101789.56;144994;609;5002;-88
2022/01/03 06:08:18;;;;;;;8.05;5.28;;;;;;;13.73;54.04;101791.34;144994;594;5004;-86
2022/01/03 06:10:44;;;;;;;6.70;5.03;;;;;;;13.73;54.33;101786.13;144994;569;5004;-87
2022/01/03 06:13:11;;;;;;;6.30;5.25;;;;;;;13.74;54.30;101785.28;144994;579;5004;-89
2022/01/03 06:15:39;;;;;;;7.35;5.93;;;;;;;13.88;54.07;101791.84;144994;596;5004;-88
2022/01/03 06:18:10;;;;;;;8.50;5.93;;;;;;;14.28;53.44;101780.06;144994;584;5004;-87
2022/01/03 06:20:39;;;;;;;6.97;5.50;;;;;;;14.84;52.54;101774.84;144994;564;5004;-87
2022/01/03 06:23:07;;;;;;;6.70;5.68;;;;;;;15.42;52.03;101775.56;144993;597;5004;-87
2022/01/03 06:25:33;;;;;;;6.65;5.25;;;;;;;16.01;51.14;101773.59;144994;572;5002;-86
2022/01/03 06:28:00;;;;;;;5.45;4.53;;;;;;;16.57;49.51;101773.13;144994;563;5002;-87
2022/01/03 06:30:26;;;;;;;6.32;4.70;;;;;;;17.05;48.96;101761.91;144994;574;5002;-86
2022/01/03 06:32:52;;;;;;;9.98;5.85;;;;;;;17.50;48.33;101770.59;144994;581;5002;-86
2022/01/03 06:35:20;;;;;;;9.45;6.05;;;;;;;17.91;47.63;101773.09;144994;721;5002;-89
2022/01/03 06:37:47;;;;;;;7.00;5.85;;;;;;;18.28;47.12;101773.69;144994;586;5002;-87
2022/01/03 06:40:14;;;;;;;8.57;6.40;;;;;;;18.64;46.25;101773.31;144994;606;5002;-88
2022/01/03 06:42:40;;;;;;;12.73;6.72;;;;;;;18.94;45.64;101769.31;144994;566;5002;-87
2022/01/03 06:45:07;;;;;;;8.70;6.62;;;;;;;19.06;45.42;101763.34;144994;569;5002;-87
2022/01/03 06:47:36;;;;;;;13.10;6.25;;;;;;;19.09;45.48;101760.72;144994;566;5002;-87
2022/01/03 06:50:04;;;;;;;8.50;7.60;;;;;;;19.17;45.73;101763.47;144994;587;5002;-88
2022/01/03 06:52:30;;;;;;;10.02;7.55;;;;;;;19.24;45.75;101769.66;144994;565;5002;-89
2022/01/03 06:54:57;;;;;;;9.65;7.47;;;;;;;19.35;45.54;101761.00;144994;614;5002;-86
2022/01/03 06:57:23;;;;;;;10.38;8.80;;;;;;;19.50;45.46;101762.91;144994;722;5002;-87
2022/01/03 07:00:24;;;;;;;;;;;;;;;;;;;;;
2022/01/03 07:02:59;;;;;;;8.93;7.65;;;;;;;19.90;44.61;101768.56;144994;571;5004;-88
2022/01/03 07:05:25;;;;;;;9.63;7.62;;;;;;;20.07;44.19;101773.06;144994;574;5004;-89
2022/01/03 07:07:52;;;;;;;10.55;8.13;;;;;;;20.17;43.92;101766.09;144994;579;5004;-87
2022/01/03 07:10:19;;;;;;;8.82;7.93;;;;;;;20.25;43.43;101764.38;144994;567;5004;-86
2022/01/03 07:12:51;;;;;;;8.70;7.87;;;;;;;20.32;42.93;101762.69;144994;571;5004;-86
2022/01/03 07:20:48;;;;;;;11.27;8.60;;;;;;;20.45;42.44;101762.75;144994;598;4568;-88
2022/01/03 07:23:17;;;;;;;10.65;9.52;;;;;;;20.49;42.39;101766.31;144994;583;4568;-88
2022/01/03 07:25:47;;;;;;;10.15;8.90;;;;;;;20.53;42.50;101775.09;144994;577;4574;-88
2022/01/03 07:28:15;;;;;;;13.93;8.85;;;;;;;20.59;42.44;101769.88;144993;607;6000;-87
2022/01/03 07:30:43;;;;;;;14.00;8.93;;;;;;;20.66;42.25;101769.03;144992;638;6002;-88
2022/01/03 07:33:10;;;;;;;10.93;8.57;;;;;;;20.71;42.28;101766.44;144992;614;6002;-87
2022/01/03 07:35:37;;;;;;;10.63;9.00;;;;;;;20.74;42.33;101777.00;144992;608;6002;-87
2022/01/03 07:38:04;;;;;;;10.40;8.68;;;;;;;20.79;42.37;101770.88;144992;563;6002;-89
2022/01/03 07:40:32;;;;;;;10.70;8.25;;;;;;;20.88;42.11;101771.78;144992;564;6002;-86
2022/01/03 07:42:58;;;;;;;9.60;7.90;;;;;;;20.93;41.81;101772.66;144992;585;6002;-88
2022/01/03 07:45:26;;;;;;;11.45;8.85;;;;;;;20.98;41.73;101770.91;144992;587;6002;-88
2022/01/03 07:47:54;;;;;;;11.30;8.50;;;;;;;21.05;41.64;101771.84;144992;598;6002;-87
2022/01/03 07:50:25;;;;;;;10.18;7.60;;;;;;;21.08;41.75;101763.91;144992;564;6002;-87
2022/01/03 07:52:53;;;;;;;8.70;7.80;;;;;;;21.15;41.43;101763.94;144992;618;6002;-87
2022/01/03 07:55:19;;;;;;;10.65;7.35;;;;;;;21.25;41.11;101767.47;144992;596;6002;-87
2022/01/03 07:57:46;;;;;;;10.07;7.85;;;;;;;21.32;41.15;101768.41;144992;600;6002;-87
2022/01/03 08:00:15;;;;;;;10.55;7.90;;;;;;;21.36;41.33;101767.50;144992;581;6002;-87
2022/01/03 08:02:42;;;;;;;13.52;8.43;;;;;;;21.43;41.50;101768.38;144992;698;6002;-87
2022/01/03 08:05:11;;;;;;;11.25;9.00;;;;;;;21.52;41.22;101760.50;144992;611;6002;-86
2022/01/03 08:07:37;;;;;;;11.18;9.48;;;;;;;21.62;40.91;101761.41;144992;574;6002;-88
2022/01/03 08:10:07;;;;;;;15.13;9.30;;;;;;;21.69;41.03;101761.41;144992;573;6002;-86
2022/01/03 08:12:34;;;;;;;12.65;9.48;;;;;;;21.76;40.98;101769.34;144992;731;6002;-89
2022/01/03 08:15:03;;;;;;;13.48;9.43;;;;;;;21.84;40.41;101764.94;144992;614;6002;-88
2022/01/03 08:17:30;;;;;;;13.73;9.90;;;;;;;21.90;40.39;101764.94;144992;652;6002;-89
2022/01/03 08:19:56;;;;;;;11.90;10.00;;;;;;;21.99;40.25;101766.69;144992;600;6002;-90
2022/01/03 08:22:23;;;;;;;11.63;10.05;;;;;;;22.07;39.62;101764.91;144992;569;6002;-87
2022/01/03 08:24:50;;;;;;;14.02;11.40;;;;;;;22.15;39.95;101756.97;144992;582;6002;-88
2022/01/03 08:27:17;;;;;;;15.95;14.52;;;;;;;22.21;39.40;101755.19;144991;564;6002;-88
2022/01/03 08:29:43;;;;;;;20.98;18.98;;;;;;;22.26;39.39;101745.47;144992;599;6002;-87
2022/01/03 08:32:10;;;;;;;14.70;12.13;;;;;;;22.35;38.98;101749.00;144992;570;6002;-88
2022/01/03 08:34:39;;;;;;;15.13;11.25;;;;;;;22.40;39.42;101750.78;144991;661;6002;-86
2022/01/03 08:37:06;;;;;;;12.32;10.57;;;;;;;22.38;39.39;101749.00;144992;625;6002;-85
2022/01/03 08:39:32;;;;;;;11.50;8.10;;;;;;;22.27;39.58;101738.41;144992;630;6002;-89
2022/01/03 08:41:59;;;;;;;11.63;8.27;;;;;;;22.20;39.47;101734.03;144992;581;6002;-87
2022/01/03 08:44:25;;;;;;;8.18;7.37;;;;;;;22.09;40.35;101737.56;144992;571;6002;-91
2022/01/03 08:47:05;;;;;;;8.73;7.43;;;;;;;22.05;40.03;101729.69;144992;574;6002;-88
2022/01/03 08:49:37;;;;;;;8.88;6.95;;;;;;;22.05;40.24;101730.53;144992;572;6002;-89
2022/01/03 08:52:05;;;;;;;8.18;7.37;;;;;;;22.11;40.43;101721.72;144992;613;6002;-86
2022/01/03 08:54:35;;;;;;;10.20;6.35;;;;;;;22.06;40.47;101716.47;144992;564;6002;-86
2022/01/03 08:57:02;;;;;;;7.78;6.37;;;;;;;22.06;40.64;101721.75;144992;672;6002;-88
2022/01/03 08:59:30;;;;;;;7.25;6.47;;;;;;;22.09;40.54;101718.19;144992;592;6002;-89
2022/01/03 09:01:57;;;;;;;7.70;6.40;;;;;;;22.03;40.81;101720.84;144992;655;6002;-91
2022/01/03 09:04:23;;;;;;;7.87;5.82;;;;;;;22.14;40.42;101712.91;144992;652;6002;-90
2022/01/03 09:06:53;;;;;;;8.07;5.95;;;;;;;22.17;39.90;101703.19;144992;563;6002;-90
2022/01/03 09:09:19;;;;;;;7.15;5.60;;;;;;;22.14;40.13;101702.31;144992;586;6002;-86
2022/01/03 09:11:50;;;;;;;5.82;5.22;;;;;;;22.19;40.77;101705.81;144992;586;6002;-87
2022/01/03 09:14:19;;;;;;;5.70;4.90;;;;;;;22.25;40.38;101705.81;144992;602;6002;-87
2022/01/03 09:16:46;;;;;;;9.75;4.85;;;;;;;22.27;40.45;101701.37;144992;780;6002;-87
2022/01/03 09:19:15;;;;;;;6.00;5.40;;;;;;;22.32;40.14;101697.03;144992;626;6002;-87
2022/01/03 09:21:42;;;;;;;8.27;5.53;;;;;;;22.32;40.66;101698.75;144992;593;6002;-89
2022/01/03 09:29:54;;;;;;;7.47;5.20;;;;;;;22.42;39.93;101674.06;144992;623;6002;-85
2022/01/03 09:32:20;;;;;;;8.38;6.32;;;;;;;22.43;40.26;101665.22;144992;569;6002;-87
2022/01/03 09:34:50;;;;;;;7.60;6.80;;;;;;;22.30;40.13;101674.09;144992;619;6002;-88
2022/01/03 09:37:20;;;;;;;7.37;6.57;;;;;;;22.18;40.38;101675.88;144992;595;6002;-87
2022/01/03 09:39:50;;;;;;;8.07;6.50;;;;;;;21.98;40.37;101660.06;144992;607;6002;-89
2022/01/03 09:42:24;;;;;;;7.70;6.93;;;;;;;22.02;41.08;101663.59;144992;578;6002;-88
2022/01/03 09:44:53;;;;;;;7.22;6.50;;;;;;;22.04;41.07;101656.53;144992;565;6002;-90
2022/01/03 09:47:21;;;;;;;7.62;6.82;;;;;;;22.11;41.15;101645.03;144991;633;6002;-87
2022/01/03 09:49:49;;;;;;;9.52;7.15;;;;;;;22.10;40.63;101644.16;144992;569;6002;-86
2022/01/03 09:52:17;;;;;;;8.52;6.95;;;;;;;21.92;41.43;101642.47;144992;589;6002;-87
2022/01/03 09:54:45;;;;;;;8.27;7.07;;;;;;;21.90;41.22;101636.31;144992;675;6002;-86
2022/01/03 09:57:13;;;;;;;8.15;6.90;;;;;;;21.97;41.44;101631.88;144992;576;6002;-85
2022/01/03 09:59:42;;;;;;;8.70;6.70;;;;;;;22.07;41.17;101620.37;144992;651;6002;-88
2022/01/03 10:02:09;;;;;;;8.38;7.32;;;;;;;22.07;41.13;101615.09;144992;654;6002;-87
2022/01/03 10:04:36;;;;;;;9.80;7.20;;;;;;;22.15;41.42;101611.53;144992;618;6002;-86
2022/01/03 10:07:08;;;;;;;7.60;6.70;;;;;;;22.17;41.21;101609.75;144992;585;6002;-89
2022/01/03 10:09:35;;;;;;;9.45;8.20;;;;;;;21.93;41.64;101601.03;144992;583;6002;-88
2022/01/03 10:12:02;;;;;;;7.65;6.78;;;;;;;22.00;41.43;101592.22;144992;586;6002;-89
2022/01/03 10:14:29;;;;;;;8.23;7.43;;;;;;;22.06;40.91;101597.47;144992;653;6002;-87
2022/01/03 10:16:55;;;;;;;9.98;8.00;;;;;;;22.15;41.64;101598.31;144991;612;6002;-88
2022/01/03 10:19:23;;;;;;;7.87;6.93;;;;;;;22.26;40.91;101597.38;144992;594;6002;-88
2022/01/03 10:21:51;;;;;;;7.78;6.62;;;;;;;22.32;41.31;101593.88;144992;630;6002;-87
2022/01/03 10:24:31;;;;;;;7.37;6.45;;;;;;;22.32;40.57;101585.94;144992;570;6002;-85
2022/01/03 10:26:57;;;;;;;6.82;6.00;;;;;;;22.20;41.16;101583.31;144992;698;6002;-86
2022/01/03 10:29:27;;;;;;;8.52;6.68;;;;;;;22.26;40.41;101575.34;144992;652;6002;-86
2022/01/03 10:31:55;;;;;;;7.43;6.32;;;;;;;22.13;40.92;101571.00;144992;564;6002;-88
2022/01/03 10:34:25;;;;;;;40.15;33.75;;;;;;;21.84;40.99;101572.00;144992;608;6002;-87
2022/01/03 10:37:20;;;;;;;7.85;7.05;;;;;;;21.53;41.72;101577.38;144992;589;6002;-80
2022/01/03 10:39:49;;;;;;;11.45;8.63;;;;;;;21.74;41.60;101564.09;144992;595;6002;-87
2022/01/03 10:42:24;;;;;;;9.63;7.32;;;;;;;21.73;41.54;101565.00;144992;598;6002;-89
2022/01/03 10:44:51;;;;;;;6.75;6.10;;;;;;;21.81;41.18;101561.44;144992;604;6002;-87
2022/01/03 10:47:31;;;;;;;6.80;6.15;;;;;;;21.66;41.33;101547.38;144992;569;6002;-87
2022/01/03 10:49:58;;;;;;;7.25;6.35;;;;;;;21.53;41.62;101549.19;144992;605;6002;-87
2022/01/03 10:52:28;;;;;;;8.70;6.40;;;;;;;21.60;41.35;101531.53;144992;580;6002;-87
2022/01/03 10:55:33;;;;;;;7.43;6.65;;;;;;;21.25;40.64;101528.97;144992;614;6002;-85
2022/01/03 10:58:07;;;;;;;7.85;6.97;;;;;;;21.42;42.03;101529.81;144992;601;6004;-87
2022/01/03 11:00:41;;;;;;;11.07;9.25;;;;;;;21.48;41.97;101527.19;144992;562;6004;-85
2022/01/03 11:03:21;;;;;;;15.77;11.65;;;;;;;21.18;41.95;101521.03;144992;566;6004;-83
2022/01/03 11:05:54;;;;;;;13.80;10.90;;;;;;;21.01;41.70;101514.91;144992;583;6004;-88
2022/01/03 11:11:09;;;;;;;7.87;6.22;;;;;;;20.23;43.92;101507.78;144992;623;6004;-87
2022/01/03 11:13:53;;;;;;;8.05;6.28;;;;;;;20.05;44.31;101506.00;144991;566;6000;-88
2022/01/03 11:16:20;;;;;;;7.55;5.75;;;;;;;20.41;43.98;101505.19;144992;649;6002;-90
2022/01/03 11:18:48;;;;;;;5.50;4.60;;;;;;;20.16;42.19;101493.72;144992;653;6002;-87
2022/01/03 11:21:21;;;;;;;8.70;5.25;;;;;;;20.60;42.86;101492.91;144992;599;6002;-87
2022/01/03 11:24:20;;;;;;;6.60;5.12;;;;;;;20.82;42.91;101488.56;144992;663;6002;-85
2022/01/03 11:27:15;;;;;;;7.60;6.05;;;;;;;20.96;43.11;101495.56;144992;649;6004;-88
2022/01/03 11:29:48;;;;;;;13.00;8.90;;;;;;;20.48;43.03;101490.25;144992;591;6002;-87
2022/01/03 11:32:43;;;;;;;10.52;7.70;;;;;;;20.88;43.23;101492.94;144992;591;6002;-88
2022/01/03 11:35:12;;;;;;;12.50;6.30;;;;;;;20.81;43.13;101481.50;144992;571;6004;-86
2022/01/03 11:37:41;;;;;;;7.65;5.20;;;;;;;20.56;43.17;101477.94;144992;654;6004;-87
2022/01/03 11:40:11;;;;;;;5.47;4.57;;;;;;;20.70;43.15;101474.47;144992;624;6004;-87
2022/01/03 11:42:38;;;;;;;6.28;5.18;;;;;;;20.34;44.94;101466.50;144992;592;6004;-86
2022/01/03 11:45:05;;;;;;;12.52;5.50;;;;;;;19.50;47.09;101457.47;144992;633;6004;-84
2022/01/03 11:47:32;;;;;;;9.35;7.12;;;;;;;19.53;46.57;101459.22;144992;645;6004;-86
2022/01/03 11:49:59;;;;;;;8.65;5.50;;;;;;;19.04;48.18;101462.44;144992;593;6004;-86
2022/01/03 11:52:26;;;;;;;6.80;5.25;;;;;;;19.36;47.11;101448.62;144992;675;6004;-86
2022/01/03 11:54:55;;;;;;;7.70;6.15;;;;;;;19.30;48.00;101454.72;144992;664;6004;-87
2022/01/03 11:57:40;;;;;;;38.65;7.60;;;;;;;19.29;47.93;101452.06;144992;562;6004;-86
2022/01/03 12:06:05;;;;;;;;;;;;;;;18.70;49.05;101451.66;144997;904;6004;-87
2022/01/03 12:08:38;;;;;;;7.97;4.40;;;;;;;18.23;51.25;101453.00;144997;573;6002;-85
2022/01/03 12:11:22;;;;;;;4.85;4.37;;;;;;;18.39;50.13;101446.13;144992;571;6002;-87